Time;durP1;ratioP1;P1;durP2;ratioP2;P2;SDS_P1;SDS_P2;PMS_P1;PMS_P2;Temp;Humidity;BMP_temperature;BMP_pressure;BME280_temperature;BME280_humidity;BME280_pressure;Samples;Min_cycle;Max_cycle;Signal;HPM_P1;HPM_P2
2022/02/08 00:01:01;;;;;;;37.23;19.60;;;;;;;6.62;53.72;98034.00;5046529;28;20052;-78
2022/02/08 00:03:26;;;;;;;36.43;18.23;;;;;;;6.58;53.53;98023.97;5055277;28;20536;-75
2022/02/08 00:06:30;;;;;;;38.17;19.53;;;;;;;6.71;53.31;98026.84;5038446;28;20047;-75
2022/02/08 00:08:38;;;;;;;36.97;18.03;;;;;;;6.87;53.07;98032.06;5043891;28;20064;-74
2022/02/08 00:11:05;;;;;;;43.50;19.73;;;;;;;6.90;53.24;98048.34;5038716;28;20040;-77
2022/02/08 00:13:31;;;;;;;45.53;20.70;;;;;;;6.93;53.12;98040.06;5022487;28;20051;-80
2022/02/08 00:15:57;;;;;;;37.63;19.13;;;;;;;7.05;52.95;98044.97;5038885;28;20127;-75
2022/02/08 00:18:23;;;;;;;36.43;18.77;;;;;;;6.83;53.38;98036.84;5038334;28;20044;-72
2022/02/08 00:20:49;;;;;;;38.17;19.70;;;;;;;6.79;53.24;98040.00;5021656;28;20103;-75
2022/02/08 00:23:15;;;;;;;38.10;20.17;;;;;;;6.86;53.60;98039.13;5071388;28;20102;-74
2022/02/08 00:25:41;;;;;;;42.37;20.43;;;;;;;6.78;53.88;98062.13;5021205;28;20114;-75
2022/02/08 00:28:07;;;;;;;39.63;20.73;;;;;;;6.80;53.73;98053.03;5053393;28;20559;-75
2022/02/08 00:30:33;;;;;;;41.93;20.07;;;;;;;6.72;53.91;98039.88;5019134;28;20459;-75
2022/02/08 00:32:59;;;;;;;43.87;20.63;;;;;;;6.85;53.67;98047.22;5036030;28;20193;-75
2022/02/08 00:35:25;;;;;;;47.57;21.53;;;;;;;6.85;53.65;98050.69;5052181;28;20079;-75
2022/02/08 00:37:51;;;;;;;47.60;21.03;;;;;;;6.80;53.81;98041.63;5035330;28;20144;-75
2022/02/08 00:40:19;;;;;;;54.00;22.33;;;;;;;6.93;53.51;98043.72;5035448;28;20082;-75
2022/02/08 00:42:48;;;;;;;58.03;22.80;;;;;;;7.00;54.20;98057.84;5053109;28;20056;-76
2022/02/08 00:47:43;;;;;;;69.07;22.87;;;;;;;6.82;54.33;98061.59;5053553;28;20397;-73
2022/02/08 00:50:11;;;;;;;63.33;24.27;;;;;;;6.72;54.17;98031.94;5054308;28;20465;-74
2022/02/08 00:52:38;;;;;;;69.17;24.40;;;;;;;7.04;54.60;98072.38;5070772;28;20044;-76
2022/02/08 00:55:08;;;;;;;68.73;24.77;;;;;;;7.18;54.37;98066.34;5053864;28;20047;-73
2022/02/08 00:57:35;;;;;;;74.43;25.60;;;;;;;6.96;54.20;98073.22;5054004;28;20076;-73
2022/02/08 01:00:01;;;;;;;76.90;25.73;;;;;;;7.13;53.85;98068.66;5037351;28;20121;-73
2022/02/08 01:02:29;;;;;;;79.40;26.37;;;;;;;6.97;54.07;98060.84;5054237;28;20043;-71
2022/02/08 01:04:58;;;;;;;90.40;25.87;;;;;;;7.08;54.02;98063.91;5053590;28;20147;-72
2022/02/08 01:07:26;;;;;;;87.87;26.33;;;;;;;7.04;54.25;98062.63;5053660;28;20131;-73
2022/02/08 01:09:56;;;;;;;86.13;25.97;;;;;;;6.75;55.08;98079.09;5053913;28;20059;-73
2022/02/08 01:12:25;;;;;;;72.87;25.80;;;;;;;7.15;54.56;98074.63;5037939;28;20048;-72
2022/02/08 01:14:54;;;;;;;77.97;26.83;;;;;;;7.24;54.24;98077.03;5036747;28;20044;-71
2022/02/08 01:17:23;;;;;;;74.57;24.70;;;;;;;7.43;53.84;98086.28;5053424;28;20052;-73
2022/02/08 01:19:58;;;;;;;71.13;25.07;;;;;;;7.35;53.61;98081.09;5034809;28;20572;-73
2022/02/08 01:22:24;;;;;;;66.33;23.20;;;;;;;7.03;54.06;98103.19;5051984;28;20051;-72
2022/02/08 01:24:51;;;;;;;67.70;24.53;;;;;;;7.08;54.08;98092.13;5050737;28;20044;-73
2022/02/08 01:27:20;;;;;;;62.50;22.97;;;;;;;7.32;54.08;98097.28;5050216;28;20082;-73
2022/02/08 01:32:47;;;;;;;69.87;22.53;;;;;;;7.35;53.68;98102.22;5032750;28;20507;-73
2022/02/08 01:37:50;;;;;;;52.33;20.97;;;;;;;7.22;53.83;98107.22;5052028;28;20420;-77
2022/02/08 01:51:04;;;;;;;53.23;21.20;;;;;;;7.23;53.79;98098.28;5070620;28;20044;-76
2022/02/08 01:53:30;;;;;;;57.80;21.90;;;;;;;7.33;53.77;98099.75;5036624;28;20037;-75
2022/02/08 01:55:57;;;;;;;52.13;21.03;;;;;;;7.41;53.49;98110.22;5036604;28;20416;-77
2022/02/08 01:58:24;;;;;;;59.30;22.30;;;;;;;7.25;54.07;98110.34;5019660;28;20037;-73
2022/02/08 02:00:56;;;;;;;51.20;20.87;;;;;;;7.22;54.14;98097.50;5022134;28;20575;-76
2022/02/08 02:03:22;;;;;;;56.73;20.97;;;;;;;7.32;53.91;98097.28;5036428;28;20106;-73
2022/02/08 02:05:50;;;;;;;49.40;20.00;;;;;;;7.39;54.04;98103.50;5052712;28;20044;-73
2022/02/08 02:08:16;;;;;;;50.17;20.90;;;;;;;7.26;54.09;98097.97;5052925;28;20071;-73
2022/02/08 02:10:44;;;;;;;52.20;21.53;;;;;;;7.30;53.97;98109.81;5036307;28;20131;-76
2022/02/08 02:13:26;;;;;;;54.63;21.47;;;;;;;7.35;53.76;98100.38;5036346;28;20496;-73
2022/02/08 02:15:53;;;;;;;68.33;23.63;;;;;;;7.25;54.14;98112.16;5038209;28;20067;-75
2022/02/08 02:18:18;;;;;;;58.80;22.33;;;;;;;7.25;53.86;98091.88;5035968;28;20045;-73
2022/02/08 02:20:46;;;;;;;59.50;21.63;;;;;;;7.45;53.63;98116.00;5052864;28;20127;-73
2022/02/08 02:23:12;;;;;;;61.20;22.40;;;;;;;7.59;53.51;98116.06;5019517;28;20135;-72
2022/02/08 02:25:38;;;;;;;64.03;21.47;;;;;;;7.54;53.47;98128.97;5036022;28;20056;-76
2022/02/08 02:28:05;;;;;;;68.43;23.10;;;;;;;7.53;54.05;98129.97;5020127;28;20048;-74
2022/02/08 02:30:33;;;;;;;61.87;22.87;;;;;;;7.47;54.05;98135.13;5052447;28;20060;-74
2022/02/08 02:33:04;;;;;;;68.82;24.15;;;;;;;7.66;53.88;98130.19;5052992;28;20053;-72
2022/02/08 02:35:31;;;;;;;65.70;22.10;;;;;;;7.41;54.20;98135.84;5069034;28;20052;-72
2022/02/08 02:38:03;;;;;;;79.80;23.67;;;;;;;7.68;53.90;98128.22;5053050;28;20048;-75
2022/02/08 02:40:31;;;;;;;55.03;21.83;;;;;;;7.34;54.19;98129.59;5052779;28;20036;-74
2022/02/08 02:42:59;;;;;;;79.90;23.60;;;;;;;7.26;54.23;98104.06;5035782;28;20492;-75
2022/02/08 02:45:24;;;;;;;63.10;22.10;;;;;;;7.34;54.38;98122.50;5035635;28;20051;-73
2022/02/08 02:47:52;;;;;;;83.67;23.37;;;;;;;7.53;54.26;98131.78;5035487;28;20102;-75
2022/02/08 02:50:23;;;;;;;59.85;22.40;;;;;;;7.52;54.37;98133.59;5051991;28;20098;-75
2022/02/08 02:52:49;;;;;;;72.70;21.70;;;;;;;7.52;54.13;98141.53;5051888;28;20040;-76
2022/02/08 02:55:16;;;;;;;77.67;31.63;;;;;;;7.57;54.15;98148.91;5052610;28;20048;-76
2022/02/08 02:57:47;;;;;;;66.73;23.10;;;;;;;7.69;53.99;98147.50;5019234;28;20042;-76
2022/02/08 03:00:26;;;;;;;56.97;21.47;;;;;;;7.66;53.68;98158.44;5068338;28;20041;-76
2022/02/08 03:02:59;;;;;;;86.63;21.23;;;;;;;7.59;53.82;98147.75;5038437;28;20506;-75
2022/02/08 03:05:56;;;;;;;53.57;20.60;;;;;;;7.73;53.41;98148.81;5071154;28;20418;-75
2022/02/08 03:19:20;;;;;;;50.27;20.30;;;;;;;7.59;53.36;98157.50;5060796;28;20044;-74
2022/02/08 03:21:46;;;;;;;53.20;19.87;;;;;;;7.86;53.12;98151.69;5041738;28;20051;-73
2022/02/08 03:24:12;;;;;;;65.87;20.87;;;;;;;7.75;52.99;98160.03;5024791;28;20044;-74
2022/02/08 03:26:39;;;;;;;47.17;18.37;;;;;;;7.71;53.08;98161.38;5041701;28;20063;-73
2022/02/08 03:29:05;;;;;;;61.33;19.30;;;;;;;7.76;53.17;98172.25;5024925;28;20504;-74
2022/02/08 03:31:34;;;;;;;57.23;20.33;;;;;;;7.78;53.19;98173.72;5041806;28;20040;-74
2022/02/08 03:34:00;;;;;;;52.00;20.20;;;;;;;7.88;53.10;98170.84;5025082;28;20042;-73
2022/02/08 03:36:30;;;;;;;48.93;19.57;;;;;;;7.89;53.04;98175.13;5058983;28;20035;-75
2022/02/08 03:39:11;;;;;;;52.93;20.80;;;;;;;7.96;52.75;98187.47;5025963;28;20051;-75
2022/02/08 03:41:43;;;;;;;53.73;20.10;;;;;;;7.87;52.64;98170.00;5043767;28;20071;-75
2022/02/08 03:44:21;;;;;;;40.40;18.23;;;;;;;7.99;52.85;98151.94;5042462;28;20032;-78
2022/02/08 03:46:54;;;;;;;45.40;19.15;;;;;;;7.98;52.64;98176.72;5042621;28;20079;-74
2022/02/08 03:49:22;;;;;;;49.77;20.27;;;;;;;7.92;52.88;98169.47;5074902;28;20408;-73
2022/02/08 03:51:51;;;;;;;48.67;19.53;;;;;;;8.06;52.42;98177.47;5074546;28;20472;-75
2022/02/08 03:54:18;;;;;;;48.53;20.43;;;;;;;8.23;52.23;98170.25;5041955;28;20040;-74
2022/02/08 03:56:45;;;;;;;51.63;19.77;;;;;;;8.15;52.07;98178.22;5041158;28;20082;-76
2022/02/08 03:59:12;;;;;;;42.13;17.27;;;;;;;7.97;52.26;98183.00;5058228;28;20047;-73
2022/02/08 04:06:57;;;;;;;43.53;18.97;;;;;;;8.30;51.82;98179.13;5054031;28;20040;-74
2022/02/08 04:09:23;;;;;;;45.83;17.37;;;;;;;8.31;51.59;98191.34;5054472;28;20598;-74
2022/02/08 04:11:59;;;;;;;54.57;18.63;;;;;;;8.38;51.15;98190.44;5037443;28;20131;-73
2022/02/08 04:16:53;;;;;;;45.90;18.67;;;;;;;8.29;51.24;98191.50;5053878;28;20556;-75
2022/02/08 04:19:32;;;;;;;38.57;15.53;;;;;;;8.31;51.07;98192.16;5053939;28;20083;-74
2022/02/08 04:33:10;;;;;;;39.70;17.13;;;;;;;8.07;51.65;98216.13;5075173;28;20042;-72
2022/02/08 04:41:12;;;;;;;49.67;18.10;;;;;;;8.01;51.62;98208.09;5069432;28;20040;-71
2022/02/08 04:48:44;;;;;;;47.83;18.90;;;;;;;7.78;52.00;98205.41;5068297;28;20044;-74
2022/02/08 04:51:21;;;;;;;49.10;18.13;;;;;;;7.92;51.84;98214.41;5068586;28;20070;-71
2022/02/08 04:53:57;;;;;;;53.93;19.83;;;;;;;7.91;51.69;98229.47;5073951;28;20067;-71
2022/02/08 04:57:18;;;;;;;52.73;19.50;;;;;;;7.85;52.04;98226.69;5068134;28;20045;-70
2022/02/08 05:47:44;;;;;;;38.17;17.33;;;;;;;7.52;51.98;98272.78;5067780;28;20040;-75
2022/02/08 05:50:36;;;;;;;36.43;15.90;;;;;;;7.71;52.10;98291.69;5067740;28;20040;-76
2022/02/08 05:53:05;;;;;;;37.07;16.30;;;;;;;7.55;52.23;98280.38;5055185;28;20064;-76
2022/02/08 05:55:34;;;;;;;36.97;17.00;;;;;;;7.51;52.54;98305.47;5051898;28;20059;-76
2022/02/08 05:58:01;;;;;;;35.87;16.07;;;;;;;7.47;52.45;98257.47;5068799;28;20052;-77
2022/02/08 06:00:28;;;;;;;37.70;16.60;;;;;;;7.66;52.23;98309.03;5067966;28;20040;-76
2022/02/08 06:03:07;;;;;;;34.13;16.77;;;;;;;7.60;51.90;98301.78;5018080;28;20057;-78
2022/02/08 06:05:59;;;;;;;39.20;16.07;;;;;;;7.65;51.96;98312.69;5032616;28;20053;-81
2022/02/08 06:08:25;;;;;;;40.40;17.90;;;;;;;7.64;51.89;98311.03;5014693;28;20041;-79
2022/02/08 06:11:00;;;;;;;41.47;18.23;;;;;;;7.53;52.22;98304.31;5065071;28;20498;-77
2022/02/08 06:13:26;;;;;;;39.07;16.90;;;;;;;7.65;51.91;98323.25;5048739;28;20041;-77
2022/02/08 06:16:00;;;;;;;46.60;19.23;;;;;;;7.58;51.94;98325.75;5031257;28;20043;-80
2022/02/08 06:18:32;;;;;;;33.57;16.90;;;;;;;7.68;51.82;98302.59;5047103;28;20560;-77
2022/02/08 06:20:58;;;;;;;30.63;16.70;;;;;;;7.58;52.08;98332.88;5030824;28;20045;-79
2022/02/08 06:23:24;;;;;;;43.40;18.27;;;;;;;7.54;52.43;98303.31;5031053;28;20063;-80
2022/02/08 06:25:50;;;;;;;46.83;18.80;;;;;;;7.34;52.71;98328.47;5031408;28;20048;-79
2022/02/08 06:28:17;;;;;;;40.43;18.50;;;;;;;7.62;51.88;98339.44;5030878;28;20047;-75
2022/02/08 06:30:46;;;;;;;44.20;18.20;;;;;;;7.54;51.69;98335.03;5031783;28;20044;-80
2022/02/08 06:33:13;;;;;;;34.77;17.20;;;;;;;7.31;52.69;98344.66;5048525;28;20135;-76
2022/02/08 06:35:39;;;;;;;44.73;18.97;;;;;;;7.30;52.62;98331.63;5031325;28;20515;-80
2022/02/08 06:38:09;;;;;;;34.97;16.97;;;;;;;7.33;52.53;98347.97;5031980;28;20076;-80
2022/02/08 06:40:37;;;;;;;30.73;15.67;;;;;;;7.23;52.43;98351.75;5032354;28;20042;-77
2022/02/08 06:43:04;;;;;;;34.47;16.07;;;;;;;7.32;52.49;98345.50;5032597;28;20061;-77
2022/02/08 06:45:31;;;;;;;35.20;14.83;;;;;;;7.77;50.85;98330.63;5050898;28;20069;-75
2022/02/08 06:47:57;;;;;;;34.97;16.10;;;;;;;7.73;50.88;98339.91;5018572;28;20043;-77
2022/02/08 06:50:23;;;;;;;33.57;15.83;;;;;;;7.88;50.54;98343.47;5035920;28;20493;-78
2022/02/08 06:52:49;;;;;;;36.77;16.60;;;;;;;7.96;50.46;98350.53;5052729;28;20548;-77
2022/02/08 06:55:14;;;;;;;32.10;16.77;;;;;;;7.97;50.27;98352.16;5051787;28;20550;-74
2022/02/08 07:00:20;;;;;;;31.27;15.17;;;;;;;7.93;50.51;98353.53;5052213;28;20041;-73
2022/02/08 07:02:46;;;;;;;28.10;13.60;;;;;;;7.75;49.89;98355.59;5053291;28;20045;-73
2022/02/08 07:05:12;;;;;;;21.57;9.90;;;;;;;7.75;48.75;98355.59;5091109;28;20460;-74
2022/02/08 07:07:38;;;;;;;13.47;7.60;;;;;;;7.81;47.66;98358.34;5057686;28;20460;-74
2022/02/08 07:10:04;;;;;;;12.23;7.07;;;;;;;7.82;46.58;98361.81;5073785;28;20040;-74
2022/02/08 07:12:29;;;;;;;13.60;7.30;;;;;;;7.52;47.04;98362.59;5091698;28;20039;-74
2022/02/08 07:14:56;;;;;;;12.37;6.97;;;;;;;7.72;46.99;98346.16;5092489;28;20044;-75
2022/02/08 07:17:22;;;;;;;17.50;6.70;;;;;;;7.62;46.36;98342.09;5057008;28;20078;-73
2022/02/08 07:19:48;;;;;;;10.13;6.03;;;;;;;7.75;45.56;98366.97;5073455;28;20040;-73
2022/02/08 07:22:13;;;;;;;9.93;5.70;;;;;;;7.90;45.20;98367.88;5057454;28;20040;-74
2022/02/08 07:24:39;;;;;;;10.13;5.40;;;;;;;7.84;44.79;98363.28;5040758;28;20109;-73
2022/02/08 07:27:05;;;;;;;9.07;5.07;;;;;;;7.98;44.58;98375.00;5074478;28;20440;-73
2022/02/08 07:29:33;;;;;;;13.07;5.17;;;;;;;8.00;44.15;98378.25;5073410;28;20046;-73
2022/02/08 07:32:01;;;;;;;7.47;3.93;;;;;;;7.97;43.05;98375.97;5057432;28;20055;-73
2022/02/08 07:34:44;;;;;;;7.53;4.53;;;;;;;8.06;42.78;98386.34;5073264;28;20050;-73
2022/02/08 07:37:22;;;;;;;6.97;4.30;;;;;;;8.07;42.69;98387.97;5091917;28;20044;-74
2022/02/08 07:39:53;;;;;;;10.60;3.60;;;;;;;7.78;42.07;98368.47;5056000;28;20071;-74
2022/02/08 07:42:19;;;;;;;6.60;3.88;;;;;;;7.97;42.47;98379.44;5091632;28;20503;-74
2022/02/08 07:44:46;;;;;;;8.87;4.93;;;;;;;7.80;43.24;98379.66;5057628;28;20048;-74
2022/02/08 07:47:16;;;;;;;14.40;6.05;;;;;;;7.81;43.54;98368.13;5058283;28;20048;-74
2022/02/08 07:49:42;;;;;;;9.57;6.00;;;;;;;7.75;44.15;98369.59;5056530;28;20330;-74
2022/02/08 07:52:08;;;;;;;14.77;7.53;;;;;;;7.85;44.52;98354.38;5073314;28;20067;-74
2022/02/08 07:54:35;;;;;;;9.47;5.83;;;;;;;7.86;44.54;98377.16;5056542;28;20040;-74
2022/02/08 07:57:00;;;;;;;16.50;7.50;;;;;;;7.88;44.95;98374.34;5073412;28;20147;-74
2022/02/08 07:59:26;;;;;;;11.77;6.83;;;;;;;7.72;45.01;98348.00;5056901;28;20040;-74
2022/02/08 08:01:52;;;;;;;16.47;7.40;;;;;;;7.76;45.37;98370.44;5058922;28;20035;-74
2022/02/08 08:04:18;;;;;;;16.67;7.37;;;;;;;7.70;45.46;98374.59;5076282;28;20060;-75
2022/02/08 08:06:44;;;;;;;19.30;7.97;;;;;;;7.74;45.66;98383.81;5077612;28;20180;-74
2022/02/08 08:09:09;;;;;;;17.90;7.77;;;;;;;7.79;45.55;98381.50;5076922;28;20092;-74
2022/02/08 08:11:37;;;;;;;16.80;8.10;;;;;;;7.90;45.54;98383.75;5076022;28;20035;-74
2022/02/08 08:14:07;;;;;;;13.87;7.57;;;;;;;7.73;45.68;98357.56;5093975;28;20517;-74
2022/02/08 08:21:37;;;;;;;15.77;7.57;;;;;;;7.81;45.41;98387.44;5076296;28;20977;-74
2022/02/08 08:24:04;;;;;;;20.07;8.87;;;;;;;7.75;45.63;98374.91;5093225;28;20039;-74
2022/02/08 08:26:31;;;;;;;15.07;8.03;;;;;;;7.90;45.69;98377.66;5111426;28;20100;-74
2022/02/08 08:28:57;;;;;;;15.57;8.37;;;;;;;7.65;45.84;98353.16;5092936;28;20530;-74
2022/02/08 08:31:24;;;;;;;14.83;6.97;;;;;;;7.80;45.69;98383.16;5076899;28;20070;-74
2022/02/08 08:33:50;;;;;;;12.43;6.50;;;;;;;7.85;45.32;98385.28;5111297;28;20448;-74
2022/02/08 08:36:18;;;;;;;12.33;6.40;;;;;;;7.87;45.22;98388.56;5077011;28;20130;-73
2022/02/08 08:38:46;;;;;;;11.77;6.60;;;;;;;8.13;45.50;98374.06;5059677;28;20066;-74
2022/02/08 08:51:43;;;;;;;10.60;5.17;;;;;;;8.22;44.19;98382.78;5095643;28;20062;-73
2022/02/08 08:54:10;;;;;;;10.97;5.40;;;;;;;7.98;44.29;98356.47;5092700;28;20073;-73
2022/02/08 08:56:41;;;;;;;7.67;4.77;;;;;;;8.24;44.43;98379.00;5075887;28;20040;-75
2022/02/08 08:59:07;;;;;;;;;;;;;;;8.59;43.89;98386.38;5092788;28;20495;-74
2022/02/08 09:01:33;;;;;;;8.93;5.10;;;;;;;8.04;44.83;98374.28;5058381;28;19915;-74
2022/02/08 09:03:59;;;;;;;9.03;4.80;;;;;;;8.03;44.28;98372.63;5092056;28;20047;-75
2022/02/08 09:06:25;;;;;;;12.30;4.97;;;;;;;8.34;44.07;98371.69;5075270;28;20055;-74
2022/02/08 09:08:50;;;;;;;13.73;4.80;;;;;;;8.10;43.81;98357.75;5110076;28;20069;-74
2022/02/08 09:14:01;;;;;;;14.20;5.53;;;;;;;8.29;43.76;98352.03;5092697;28;20096;-74
2022/02/08 09:16:34;;;;;;;9.80;4.73;;;;;;;8.14;43.67;98380.19;5075428;28;20071;-75
2022/02/08 09:30:03;;;;;;;9.33;4.77;;;;;;;7.95;44.76;98360.28;5077179;28;19926;-74
2022/02/08 09:32:51;;;;;;;9.10;5.10;;;;;;;7.73;44.95;98341.72;5077724;28;20050;-74
2022/02/08 09:35:18;;;;;;;16.47;6.37;;;;;;;8.05;45.19;98365.34;5075018;28;20044;-74
2022/02/08 09:37:44;;;;;;;15.73;6.17;;;;;;;8.01;45.08;98366.72;5092162;28;20039;-74
2022/02/08 09:40:12;;;;;;;13.50;6.57;;;;;;;8.17;45.10;98377.19;5074539;28;20047;-70
2022/02/08 09:42:40;;;;;;;10.47;6.00;;;;;;;8.05;44.90;98360.06;5084240;28;20108;-74
2022/02/08 09:45:14;;;;;;;11.87;6.30;;;;;;;8.11;45.09;98341.69;5074738;28;20122;-75
2022/02/08 09:47:47;;;;;;;9.70;5.33;;;;;;;7.92;44.91;98359.78;5091315;28;20126;-74
2022/02/08 09:50:21;;;;;;;7.57;4.63;;;;;;;7.95;44.80;98376.13;5092677;28;20047;-75
2022/02/08 09:52:51;;;;;;;11.20;5.17;;;;;;;8.04;44.72;98363.72;5048981;28;20088;-74
2022/02/08 09:55:18;;;;;;;10.03;5.03;;;;;;;7.92;44.68;98341.28;5041769;28;20040;-75
2022/02/08 09:57:44;;;;;;;11.00;4.70;;;;;;;7.93;44.54;98361.47;5054782;28;20093;-76
2022/02/08 10:00:11;;;;;;;8.03;4.77;;;;;;;8.13;44.67;98350.25;5037590;28;20036;-74
2022/02/08 10:02:39;;;;;;;10.60;5.40;;;;;;;7.87;44.92;98346.28;5055119;28;20047;-75
2022/02/08 10:05:08;;;;;;;18.30;4.97;;;;;;;8.10;44.48;98352.44;5038073;28;20044;-74
2022/02/08 10:07:36;;;;;;;8.83;4.50;;;;;;;7.85;44.71;98335.06;5054191;28;20071;-74
2022/02/08 10:10:06;;;;;;;17.13;4.80;;;;;;;8.04;45.04;98346.00;5054673;28;20044;-75
2022/02/08 10:23:51;;;;;;;9.17;5.10;;;;;;;8.23;44.66;98358.00;5043962;28;20040;-76
2022/02/08 10:26:25;;;;;;;8.60;4.83;;;;;;;8.26;44.18;98363.78;5054681;28;20056;-74
2022/02/08 10:28:54;;;;;;;8.80;4.83;;;;;;;7.99;44.46;98335.16;5070747;28;20460;-78
2022/02/08 10:31:26;;;;;;;13.70;4.80;;;;;;;8.21;43.86;98344.13;5088904;28;20092;-70
2022/02/08 10:40:06;;;;;;;9.67;4.97;;;;;;;8.29;44.30;98341.44;4995477;28;20041;-71
2022/02/08 10:42:33;;;;;;;10.03;4.93;;;;;;;8.07;44.08;98315.78;5044358;28;20044;-71
2022/02/08 10:45:01;;;;;;;7.87;4.50;;;;;;;8.39;43.58;98353.44;5070765;28;20089;-72
2022/02/08 10:47:36;;;;;;;6.18;4.10;;;;;;;8.56;43.13;98346.22;5037728;28;20040;-72
2022/02/08 10:50:04;;;;;;;7.10;4.23;;;;;;;8.39;43.30;98357.94;5020538;28;20044;-72
2022/02/08 10:52:30;;;;;;;9.30;4.60;;;;;;;8.24;43.44;98317.38;5088005;28;20147;-69
2022/02/08 10:55:01;;;;;;;12.00;4.80;;;;;;;8.46;43.28;98358.84;5054515;28;20071;-71
2022/02/08 10:57:37;;;;;;;7.90;4.15;;;;;;;8.56;42.74;98348.88;5054735;28;20036;-72
2022/02/08 11:00:05;;;;;;;7.03;4.17;;;;;;;8.36;42.91;98350.34;5037827;28;20044;-75
2022/02/08 11:02:40;;;;;;;8.63;3.97;;;;;;;8.56;42.87;98346.22;5069882;28;20043;-73
2022/02/08 11:06:02;;;;;;;9.37;3.93;;;;;;;8.69;42.47;98348.28;5071609;28;20078;-73
2022/02/08 11:08:34;;;;;;;7.00;3.85;;;;;;;8.50;42.75;98337.16;5028898;28;20163;-72
2022/02/08 11:11:12;;;;;;;10.77;3.77;;;;;;;8.44;42.79;98337.06;5070310;28;20095;-66
2022/02/08 11:14:00;;;;;;;6.77;3.47;;;;;;;8.34;42.44;98331.16;5057206;28;20050;-66
2022/02/08 11:16:32;;;;;;;6.15;3.72;;;;;;;8.77;41.74;98343.75;5073282;28;20189;-66
2022/02/08 11:19:26;;;;;;;10.48;5.05;;;;;;;8.73;41.69;98337.16;5050054;28;20114;-66
2022/02/08 11:22:11;;;;;;;9.57;3.45;;;;;;;8.59;41.85;98324.72;5072582;28;20047;-66
2022/02/08 11:24:44;;;;;;;5.95;2.95;;;;;;;9.09;41.59;98340.81;5086919;28;20032;-67
2022/02/08 11:27:15;;;;;;;5.18;2.70;;;;;;;8.75;41.48;98335.16;5053881;28;20044;-66
2022/02/08 11:29:54;;;;;;;5.25;3.00;;;;;;;9.04;41.20;98337.88;5053243;28;20032;-66
2022/02/08 11:32:51;;;;;;;5.32;2.70;;;;;;;8.77;41.70;98337.63;5091847;28;20048;-66
2022/02/08 11:44:47;;;;;;;4.55;2.42;;;;;;;9.13;41.39;98336.81;5056712;28;19920;-67
2022/02/08 11:47:27;;;;;;;4.27;2.27;;;;;;;8.87;42.29;98346.16;5043121;28;20146;-66
2022/02/08 11:52:33;;;;;;;5.03;3.10;;;;;;;8.91;41.89;98332.38;5056941;28;20076;-67
2022/02/08 12:07:49;;;;;;;4.97;2.70;;;;;;;8.83;42.07;98350.97;5069424;28;20098;-70
2022/02/08 12:10:28;;;;;;;2.78;2.28;;;;;;;8.42;42.61;98337.25;5070026;28;20044;-65
2022/02/08 12:54:55;;;;;;;4.27;2.40;;;;;;;9.10;41.83;98366.28;5037479;28;20036;-66
2022/02/08 14:18:49;;;;;;;4.68;2.40;;;;;;;7.68;44.31;98397.72;5037850;28;20040;-67
2022/02/08 14:32:04;;;;;;;5.00;2.50;;;;;;;7.68;43.95;98404.81;4982249;28;20049;-69
2022/02/08 14:35:00;;;;;;;9.50;2.40;;;;;;;7.29;44.44;98399.44;5054941;28;20051;-67
2022/02/08 15:10:01;;;;;;;2.93;1.70;;;;;;;8.08;43.17;98408.16;5073929;28;20043;-68
2022/02/08 15:12:33;;;;;;;2.60;1.90;;;;;;;8.27;43.33;98406.94;5023901;28;20040;-68
2022/02/08 15:15:11;;;;;;;5.43;2.30;;;;;;;8.31;42.67;98401.13;5025149;28;20139;-69
2022/02/08 15:17:37;;;;;;;5.60;1.70;;;;;;;8.41;42.76;98414.94;5094570;28;20078;-68
2022/02/08 15:20:05;;;;;;;2.30;1.90;;;;;;;8.47;43.43;98402.84;5059809;28;20077;-67
2022/02/08 15:22:31;;;;;;;4.57;1.90;;;;;;;8.44;42.32;98414.59;5094216;28;20039;-67
2022/02/08 15:24:59;;;;;;;3.00;1.80;;;;;;;8.48;41.86;98401.84;5078205;28;20104;-72
2022/02/08 15:27:27;;;;;;;3.67;2.10;;;;;;;8.04;42.30;98375.09;5061009;28;20519;-67
2022/02/08 15:29:55;;;;;;;2.63;1.80;;;;;;;8.12;42.25;98400.66;5076115;28;20419;-67
2022/02/08 15:32:22;;;;;;;2.97;1.80;;;;;;;7.87;43.25;98388.56;5061125;28;20457;-67
2022/02/08 15:34:48;;;;;;;2.37;1.77;;;;;;;7.57;43.83;98411.28;5078017;28;20047;-71
2022/02/08 15:37:14;;;;;;;2.93;2.10;;;;;;;7.76;44.70;98418.84;5077933;28;20047;-67
2022/02/08 15:39:43;;;;;;;2.80;2.20;;;;;;;7.66;45.41;98409.44;5096370;28;20050;-65
2022/02/08 15:42:09;;;;;;;4.03;2.17;;;;;;;7.42;45.48;98401.56;5060380;28;20166;-65
2022/02/08 15:44:35;;;;;;;4.77;2.60;;;;;;;7.29;46.51;98415.28;5060415;28;20134;-66
2022/02/08 15:47:05;;;;;;;3.33;2.27;;;;;;;7.22;46.91;98400.28;5059978;28;20158;-68
2022/02/08 15:49:33;;;;;;;2.92;2.50;;;;;;;7.30;46.76;98416.13;5076794;28;20036;-69
2022/02/08 15:52:15;;;;;;;4.53;2.87;;;;;;;6.92;48.39;98401.78;5058627;28;20047;-66
2022/02/08 15:54:45;;;;;;;6.37;3.27;;;;;;;6.93;48.85;98407.91;5058649;28;20392;-67
2022/02/08 15:57:48;;;;;;;4.50;3.17;;;;;;;6.86;49.27;98419.13;5059298;28;20050;-68
2022/02/08 16:08:11;;;;;;;4.50;3.13;;;;;;;6.81;49.84;98415.34;5095034;28;20048;-67
2022/02/08 16:10:50;;;;;;;7.50;3.80;;;;;;;6.49;50.71;98410.00;5076681;28;20054;-67
2022/02/08 16:13:39;;;;;;;8.43;3.50;;;;;;;6.60;50.07;98405.25;5078161;28;20054;-67
2022/02/08 16:18:40;;;;;;;5.57;3.30;;;;;;;6.83;49.55;98414.16;5058694;28;20042;-66
2022/02/08 16:24:02;;;;;;;7.13;4.30;;;;;;;6.72;49.73;98408.38;5062096;28;20042;-68
2022/02/08 16:27:04;;;;;;;7.27;3.87;;;;;;;6.69;49.85;98417.44;5059631;28;20062;-66
2022/02/08 16:49:05;;;;;;;6.00;3.83;;;;;;;6.23;51.04;98452.28;5057340;28;20047;-68
2022/02/08 16:57:04;;;;;;;4.43;3.10;;;;;;;6.15;50.43;98404.00;5057878;28;20138;-66
2022/02/08 16:59:34;;;;;;;7.67;3.23;;;;;;;5.68;50.80;98386.97;5074173;28;20046;-66
2022/02/08 17:02:04;;;;;;;5.13;2.85;;;;;;;5.88;51.17;98398.94;5073639;28;20049;-67
2022/02/08 17:04:32;;;;;;;5.33;2.87;;;;;;;5.83;51.00;98404.69;5069638;28;20462;-67
2022/02/08 17:06:59;;;;;;;4.67;2.43;;;;;;;5.84;51.01;98402.88;5069748;28;20044;-67
2022/02/08 17:12:10;;;;;;;5.90;2.43;;;;;;;5.79;50.63;98402.50;5032570;28;20397;-66
2022/02/08 17:17:28;;;;;;;2.50;2.20;;;;;;;5.84;50.23;98414.25;5048962;28;20528;-67
2022/02/08 17:34:28;;;;;;;4.80;2.80;;;;;;;5.78;50.79;98417.47;5067353;28;20041;-67
2022/02/08 17:49:55;;;;;;;6.07;2.87;;;;;;;6.19;49.50;98403.50;5068867;28;20401;-68
2022/02/08 17:52:21;;;;;;;3.50;2.33;;;;;;;6.15;48.89;98375.00;5084503;28;20088;-67
2022/02/08 17:54:47;;;;;;;4.87;2.80;;;;;;;6.36;48.93;98407.00;5051697;28;20450;-66
2022/02/08 17:57:15;;;;;;;2.37;2.13;;;;;;;6.15;48.81;98399.53;5035348;28;20802;-68
2022/02/08 17:59:41;;;;;;;5.40;3.30;;;;;;;6.15;49.33;98402.16;5067030;28;20444;-67
2022/02/08 18:02:09;;;;;;;6.30;2.93;;;;;;;5.93;49.54;98365.88;5087642;28;20055;-68
2022/02/08 18:04:36;;;;;;;2.73;2.10;;;;;;;5.44;50.60;98419.28;5062912;28;20095;-66
2022/02/08 18:07:03;;;;;;;3.50;2.37;;;;;;;6.13;49.23;98400.69;5034360;28;20576;-66
2022/02/08 18:09:29;;;;;;;2.77;2.57;;;;;;;5.71;50.18;98391.91;5034902;28;20041;-66
2022/02/08 18:11:59;;;;;;;7.30;4.13;;;;;;;5.90;49.18;98358.28;5051391;28;20040;-67
2022/02/08 18:14:25;;;;;;;4.93;2.93;;;;;;;5.83;50.13;98391.50;5067666;28;20105;-66
2022/02/08 18:17:02;;;;;;;4.20;2.97;;;;;;;6.10;49.40;98403.66;5047631;28;20091;-67
2022/02/08 18:19:33;;;;;;;4.93;2.70;;;;;;;6.00;49.76;98392.38;5062168;28;20144;-67
2022/02/08 18:22:28;;;;;;;5.35;2.95;;;;;;;5.70;50.40;98380.56;5033055;28;20119;-66
2022/02/08 19:20:41;;;;;;;9.10;3.30;;;;;;;6.04;48.44;98386.66;5044087;28;20048;-66
2022/02/08 19:23:01;;;;;;;4.37;2.87;;;;;;;6.01;48.43;98386.97;5057386;28;20067;-66
2022/02/08 19:25:26;;;;;;;5.60;3.87;;;;;;;6.16;48.56;98382.75;5054777;28;20153;-65
2022/02/08 19:27:54;;;;;;;9.80;5.90;;;;;;;6.30;48.19;98383.94;5055747;28;20048;-66
2022/02/08 19:30:20;;;;;;;13.37;6.73;;;;;;;6.31;48.08;98391.69;5072646;28;20040;-66
2022/02/08 19:32:46;;;;;;;10.00;4.43;;;;;;;6.28;48.19;98391.16;5038577;28;20078;-66
2022/02/08 19:35:14;;;;;;;7.00;4.17;;;;;;;6.53;48.09;98382.31;5071568;28;20056;-66
2022/02/08 19:37:41;;;;;;;5.20;4.10;;;;;;;6.32;48.46;98392.50;5054856;28;20040;-65
2022/02/08 19:40:08;;;;;;;8.07;4.60;;;;;;;6.46;48.41;98387.41;5071622;28;20373;-66
2022/02/08 19:42:34;;;;;;;6.67;3.60;;;;;;;6.47;48.20;98383.78;5071473;28;20070;-65